createdAt,value
2023-06-07T00:04:18.695Z,2.20
2023-06-07T00:09:10.779Z,2.00
2023-06-07T00:14:04.278Z,2.22
2023-06-07T00:18:56.993Z,2.00
2023-06-07T00:23:49.040Z,2.00
2023-06-07T00:28:41.417Z,2.30
2023-06-07T00:33:33.847Z,2.08
2023-06-07T00:38:25.772Z,2.53
2023-06-07T00:43:17.982Z,2.40
2023-06-07T00:48:10.503Z,2.13
2023-06-07T00:53:04.183Z,2.78
2023-06-07T00:57:56.538Z,2.58
2023-06-07T01:02:50.574Z,2.20
2023-06-07T01:07:49.511Z,2.00
2023-06-07T01:12:45.262Z,2.55
2023-06-07T01:17:42.345Z,2.10
2023-06-07T01:22:34.813Z,2.03
2023-06-07T01:27:28.239Z,2.22
2023-06-07T01:32:20.622Z,2.08
2023-06-07T01:37:12.507Z,2.30
2023-06-07T01:42:07.188Z,2.30
2023-06-07T01:46:58.955Z,2.00
2023-06-07T01:51:50.652Z,2.08
2023-06-07T01:57:21.793Z,2.03
2023-06-07T02:02:25.510Z,2.30
2023-06-07T02:07:24.553Z,2.70
2023-06-07T02:12:18.833Z,2.20
2023-06-07T02:17:10.688Z,2.03
2023-06-07T02:22:02.650Z,2.15
2023-06-07T02:26:55.085Z,2.13
2023-06-07T02:31:50.047Z,2.20
2023-06-07T02:36:41.869Z,2.10
2023-06-07T02:41:34.250Z,2.50
2023-06-07T02:46:26.209Z,2.40
2023-06-07T02:51:18.259Z,2.42
2023-06-07T02:56:10.464Z,2.30
2023-06-07T03:01:03.123Z,2.30
2023-06-07T03:05:54.929Z,2.58
2023-06-07T03:10:46.661Z,2.63
2023-06-07T03:15:38.463Z,3.10
2023-06-07T03:20:31.002Z,2.50
2023-06-07T03:25:22.889Z,2.60
2023-06-07T03:30:14.860Z,2.45
2023-06-07T03:35:06.960Z,2.35
2023-06-07T03:39:58.744Z,2.60
2023-06-07T03:44:50.528Z,2.63
2023-06-07T03:49:43.285Z,2.45
2023-06-07T03:54:35.016Z,2.53
2023-06-07T03:59:27.302Z,2.80
2023-06-07T04:04:19.140Z,2.65
2023-06-07T04:09:10.964Z,2.67
2023-06-07T04:14:02.783Z,2.25
2023-06-07T04:18:54.485Z,2.50
2023-06-07T04:23:46.242Z,2.22
2023-06-07T04:28:39.167Z,2.35
2023-06-07T04:33:34.189Z,2.03
2023-06-07T04:38:26.877Z,2.60
2023-06-07T04:43:19.924Z,2.80
2023-06-07T04:48:14.297Z,2.42
2023-06-07T04:53:06.092Z,2.80
2023-06-07T04:58:01.315Z,2.80
2023-06-07T05:02:56.215Z,2.42
2023-06-07T05:07:48.325Z,2.40
2023-06-07T05:12:40.959Z,2.75
2023-06-07T05:17:34.043Z,2.72
2023-06-07T05:22:26.887Z,2.40
2023-06-07T05:27:20.230Z,2.38
2023-06-07T05:32:11.967Z,2.53
2023-06-07T05:37:06.521Z,1.90
2023-06-07T05:47:12.441Z,2.50
2023-06-07T05:52:12.686Z,2.00
2023-06-07T05:57:08.696Z,2.35
2023-06-07T06:12:33.208Z,2.03
2023-06-07T06:22:31.630Z,2.00
2023-06-07T06:37:41.826Z,2.10
2023-06-07T06:57:53.960Z,2.03
2023-06-07T07:02:45.897Z,1.80
2023-06-07T07:07:39.276Z,2.45
2023-06-07T07:12:31.003Z,2.10
2023-06-07T07:17:22.871Z,1.80
2023-06-07T07:22:14.630Z,2.40
2023-06-07T07:27:07.805Z,2.30
2023-06-07T07:31:59.804Z,3.00
2023-06-07T07:36:51.693Z,2.53
2023-06-07T07:41:44.486Z,2.50
2023-06-07T07:46:39.568Z,2.55
2023-06-07T07:51:31.320Z,2.50
2023-06-07T07:56:23.657Z,2.30
2023-06-07T08:01:21.624Z,2.20
2023-06-07T08:06:13.471Z,2.58
2023-06-07T08:11:06.684Z,2.60
2023-06-07T09:07:35.618Z,2.63
2023-06-07T09:54:07.747Z,2.85
2023-06-07T10:59:20.044Z,2.80
2023-06-07T11:04:35.744Z,3.40
2023-06-07T11:09:33.987Z,3.22
2023-06-07T11:30:46.596Z,3.10
2023-06-07T13:14:35.338Z,3.20
2023-06-07T13:29:42.635Z,3.35
2023-06-07T14:00:39.366Z,3.53
2023-06-07T14:05:39.188Z,3.10
2023-06-07T14:16:10.120Z,2.88
2023-06-07T14:21:04.001Z,3.70
2023-06-07T14:41:16.481Z,3.17
2023-06-07T15:01:46.506Z,2.90
2023-06-07T15:06:39.945Z,3.25
2023-06-07T15:16:40.294Z,2.97
2023-06-07T15:37:04.031Z,2.78
2023-06-07T15:41:55.916Z,3.53
2023-06-07T15:46:50.299Z,3.75
2023-06-07T15:51:53.056Z,3.45
2023-06-07T15:56:46.571Z,3.38
2023-06-07T16:01:46.284Z,3.72
2023-06-07T16:17:01.404Z,3.38
2023-06-07T16:32:06.557Z,3.33
2023-06-07T16:42:05.424Z,3.30
2023-06-07T16:46:58.190Z,3.67
2023-06-07T16:56:59.047Z,5.00
2023-06-07T17:06:59.788Z,3.60
2023-06-07T17:11:51.924Z,3.30
2023-06-07T17:21:54.134Z,3.28
2023-06-07T17:32:06.681Z,3.80
2023-06-07T17:42:10.219Z,3.45
2023-06-07T17:52:25.737Z,3.30
2023-06-07T17:57:17.560Z,3.50
2023-06-07T18:07:16.817Z,3.63
2023-06-07T18:12:14.160Z,3.33
2023-06-07T18:17:08.526Z,3.45
2023-06-07T18:22:01.246Z,3.55
2023-06-07T18:26:53.569Z,3.58
2023-06-07T18:31:46.523Z,3.10
2023-06-07T18:36:41.065Z,3.40
2023-06-07T18:41:32.800Z,3.58
2023-06-07T18:46:24.618Z,3.90
2023-06-07T18:51:16.478Z,3.28
2023-06-07T18:56:12.991Z,3.35
2023-06-07T19:01:07.025Z,3.50
2023-06-07T19:05:59.251Z,3.17
2023-06-07T19:15:56.730Z,3.13
2023-06-07T19:20:49.079Z,3.15
2023-06-07T19:25:41.474Z,3.22
2023-06-07T19:30:33.551Z,3.38
2023-06-07T19:35:28.591Z,3.22
2023-06-07T19:40:29.375Z,3.30
2023-06-07T19:45:21.527Z,3.30
2023-06-07T19:50:14.062Z,3.42
2023-06-07T19:55:06.574Z,3.08
2023-06-07T19:59:58.491Z,3.40
2023-06-07T20:04:50.427Z,3.25
2023-06-07T20:09:42.905Z,3.15
2023-06-07T20:14:36.771Z,2.92
2023-06-07T20:19:29.432Z,3.35
2023-06-07T20:24:21.268Z,3.05
2023-06-07T20:29:17.520Z,4.13
2023-06-07T20:34:10.774Z,3.92
2023-06-07T20:39:04.215Z,3.40
2023-06-07T20:43:57.731Z,3.40
2023-06-07T20:48:49.844Z,3.13
2023-06-07T20:53:43.113Z,3.22
2023-06-07T21:03:54.588Z,2.95
2023-06-07T21:08:51.875Z,3.30
2023-06-07T21:13:44.339Z,3.00
2023-06-07T21:18:36.158Z,2.95
2023-06-07T21:23:28.125Z,4.20
2023-06-07T21:28:20.064Z,4.47
2023-06-07T21:33:14.334Z,3.70
2023-06-07T21:38:06.300Z,4.50
2023-06-07T21:42:58.403Z,5.80
2023-06-07T21:47:50.818Z,4.10
2023-06-07T21:52:44.644Z,4.07
2023-06-07T21:57:39.173Z,4.50
2023-06-07T22:02:48.249Z,4.30
2023-06-07T22:07:40.651Z,4.50
2023-06-07T22:12:34.136Z,4.28
2023-06-07T22:17:27.395Z,4.20
2023-06-07T22:22:21.105Z,4.57
2023-06-07T22:32:22.539Z,3.63
2023-06-07T22:37:17.689Z,3.83
2023-06-07T22:42:09.659Z,3.95
2023-06-07T22:47:02.527Z,3.75
2023-06-07T22:51:54.915Z,3.63
2023-06-07T22:56:47.095Z,3.88
2023-06-07T23:01:43.088Z,3.92
2023-06-07T23:06:36.260Z,3.97
2023-06-07T23:16:36.422Z,3.90
2023-06-07T23:21:30.759Z,3.83
2023-06-07T23:26:23.877Z,3.70
2023-06-07T23:31:16.005Z,3.80
2023-06-07T23:36:08.847Z,3.75
2023-06-07T23:41:01.545Z,3.50
